Aerodrome Latest Weathers

# Airport/Station Observation Time (Local Time) Wind Visibility (km) Weather Temp. (°C) Dewdrop (°C) Air Pressure (hPa)
Direction (from) Speed (km/h)
1 Maimun Saleh - Sabang 2023-01-29 10:00:00 WIB Tenggara 25.9 6.0 Berawan 29 24 1010
2 Sultan Iskandar Muda - Banda Aceh 2023-01-29 10:00:00 WIB Tenggara 13.0 >=10 Berawan 28 23 1009
3 Cut Nyak Dien Nagan Raya - Meulaboh, NAD 2023-01-29 10:00:00 WIB Tenggara 11.1 7.0 Berawan 29 26 1009
4 Malikus Saleh - Lhokseumawe 2023-01-29 10:00:00 WIB Tenggara 11.1 7.0 Cerah - berawan 29 23 1009
5 Binaka - Gunung Sitoli 2023-01-29 10:00:00 WIB Tenggara 7.4 >=10 Berawan 30 25 1009
6 Kualanamu International Airport - Deli Serdang 2023-01-29 10:00:00 WIB Tenggara 14.8 >=10 Cerah - berawan 29 23 1009
7 Dr. Ferdinand Lumban Tobing - Pinangsori (Sibolga) 2023-01-29 10:00:00 WIB Variabel 3.7 >=10 Berawan 29 24 1008
8 Silangit - Tapanuli Utara 2023-01-29 10:00:00 WIB Selatan 3.7 8.0 Berawan 20 18 1018
9 Aek Godang - Padang Sidempuan 2023-01-29 10:00:00 WIB Timur Laut 5.6 6.0 Berawan 24 23 1011
10 Minangkabau International Airport - Padang 2023-01-29 10:00:00 WIB Variabel 3.7 >=10 Berawan 28 23 1008
11 Sultan Syarif Kasim II - Pekanbaru 2023-01-29 09:00:00 WIB Timur Laut 14.8 8.0 Cerah - berawan 26 23 1010
12 Depati Parbo - Kerinci 2023-01-29 10:00:00 WIB Tenggara 3.7 >=10 Berawan 23 21 1014
13 Japura - Rengat 2023-01-29 10:00:00 WIB Utara 16.7 7.0 Berawan 26 23 1010
14 Fatmawati Sukarno - Bengkulu 2023-01-29 10:00:00 WIB Barat Laut 11.1 >=10 Cerah - berawan 28 22 1007
15 Raja Haji Abdullah - Tanjung Balai Karimun 2023-01-29 10:00:00 WIB Utara 18.5 8.0 Hujan ringan 25 22 1011
16 Sultan Thaha - Jambi 2023-01-29 10:00:00 WIB Barat Laut 13.0 >=10 Berawan 26 23 1010
17 Hang Nadim - Batam 2023-01-29 10:00:00 WIB Timur Laut 24.1 9.0 Hujan ringan 24 23 1013
18 Raja Haji Fisabilillah - Tanjung Pinang 2023-01-29 10:00:00 WIB Utara 18.5 9.0 Hujan ringan 23 23 1012
19 Dabo - Singkep 2023-01-29 10:00:00 WIB Utara 24.1 6.0 Hujan ringan 25 24 1010
20 Sultan Mahmud Badaruddin II - Palembang 2023-01-29 10:00:00 WIB Barat Laut 20.4 >=10 Berawan 27 23 1009
21 Radin Inten II - Lampung 2023-01-29 10:00:00 WIB Barat Laut 20.4 >=10 Berawan 26 23 1009
22 Depati Amir - Pangkal Pinang 2023-01-29 10:00:00 WIB Barat Laut 18.5 >=10 Berawan 29 25 1008
23 Budiarto - Curug 2023-01-29 10:00:00 WIB Barat Laut 18.5 >=10 Berawan 28 26 1009
24 Soekarno Hatta - Jakarta 2023-01-29 10:00:00 WIB Barat Laut 25.9 8.0 Berawan 28 25 1009
25 Atang Sendjaja - Bogor 2023-01-29 10:00:00 WIB Barat 7.4 4.0 Udara kabur 26 23 1008
26 Halim Perdana Kusuma - Jakarta 2023-01-29 10:00:00 WIB Barat 11.1 6.0 Berawan 27 24 1009
27 Husein Sastranegara - Bandung 2023-01-29 10:00:00 WIB Barat 14.8 4.0 Udara kabur 25 23 1013
28 Suryadarma - Kalijati, Subang 2023-01-29 10:00:00 WIB Barat 11.1 4.0 Udara kabur 25 24 1009
29 H.A.S. Hanandjoeddin - Tanjung Pandan 2023-01-29 10:00:00 WIB Barat Laut 22.2 8.0 Berawan 28 25 1009
30 Kertajati 2023-01-29 10:00:00 WIB Barat 14.8 4.1 Hujan ringan 26 25 1009
31 Wiriadinata - Cibeureum, Tasikmalaya 2023-01-29 09:30:00 WIB Timur 5.6 >=10 Berawan 27 24 1009
32 Ranai - Natuna 2023-01-29 10:07:00 WIB Utara 29.6 6.0 Hujan ringan 25 25 1009
33 Cakrabhuwana / Penggung - Cirebon 2023-01-29 08:30:00 WIB Barat 13.0 5.0 Hujan ringan 24 24 1008
34 Tunggul Wulung - Cilacap 2023-01-29 10:00:00 WIB Barat Laut 16.7 5.0 Udara kabur 30 24 1007
35 Paloh - Sambas 2023-01-29 10:00:00 WIB Timur Laut 3.7 6.0 Hujan ringan 24 23 1010
36 Supadio - Pontianak 2023-01-29 10:00:00 WIB Barat 20.4 9.0 Hujan ringan 25 23 1009
37 Rahadi Oesman - Ketapang 2023-01-29 10:00:00 WIB Barat Laut 18.5 9.0 Hujan ringan 28 28 1009
38 Yogyakarta International Airport - Kulonprogo 2023-01-29 10:00:00 WIB Tenggara 9.3 >=10 Cerah - berawan 31 23 1007
39 Ahmad Yani - Semarang 2023-01-29 10:00:00 WIB Barat Laut 18.5 6.0 Berawan 29 25 1007
40 Adi Sutjipto - Yogyakarta 2023-01-29 10:00:00 WIB Timur Laut 14.8 7.0 Cerah - berawan 29 23 1007
41 Adi Soemarmo - Surakarta 2023-01-29 10:00:00 WIB Timur Laut 7.4 7.0 Cerah - berawan 29 22 1008
42 Iswahjudi - Madiun 2023-01-29 10:00:00 WIB Timur Laut 7.4 7.0 Berawan 28 25 1008
43 Tebelian - Sintang 2023-01-29 10:00:00 WIB Selatan 5.6 >=10 Berawan 28 24 1009
44 Iskandar - Pangkalan Bun 2023-01-29 10:00:00 WIB Barat 7.4 >=10 Berawan 28 24 1008
45 Nanga Pinoh 2023-01-29 10:00:00 WIB Selatan 7.4 >=10 Berawan 28 24 1008
46 Abdulrachman Saleh - Malang 2023-01-29 10:00:00 WIB Tenang 8.0 Cerah - berawan 30 23 1011
47 Juanda - Surabaya 2023-01-29 10:00:00 WIB Barat 20.4 >=10 Cerah - berawan 30 26 1007
48 Pangsuma - Putussibau 2023-01-29 10:00:00 WIB Utara 1.9 Cerah 28 25 1009
49 Haji Asan - Sampit 2023-01-29 10:00:00 WIB Barat 16.7 9.0 Berawan 29 24 1008
50 Noto Hadinegoro - Jember 2023-01-29 10:00:00 WIB Barat 5.6 9.0 Berawan 29 24 1009
51 Tjilik Riwut - Palangkaraya 2023-01-29 10:00:00 WIB Timur Laut 3.7 9.0 Berawan 28 23 1008
52 Banyuwangi 2023-01-29 10:00:00 WIB Timur 3.7 8.0 Berawan 30 25 1007
53 Beringin - Muara Teweh 2023-01-29 10:00:00 WIB Tenang 8.0 Berawan 27 23 1010
54 Sanggu - Buntok 2023-01-29 10:00:00 WIB Timur Laut 3.7 9.0 Berawan 28 24 1009
55 H. Hasan Aroeboesman - Ende 2023-01-29 10:00:00 WIB Tenggara 13.0 8.0 Berawan 32 25 1006
56 Syamsudin Noor - Banjarmasin 2023-01-29 11:00:00 WITA Barat Daya 5.6 >=10 Berawan 30 25 1008
57 I Gusti Ngurah Rai - Denpasar 2023-01-29 11:00:00 WITA Barat 7.4 >=10 Cerah - berawan 30 26 1008
58 Yuvai Semaring - Long Bawang 2023-01-29 11:00:00 WITA Timur 11.1 6.0 Berawan 23 20 1016
59 Gusti Sjamsir Alam - Kota Baru 2023-01-29 11:00:00 WITA Tenggara 3.7 8.0 Berawan 30 24 1010
60 Bandara Internasional Lombok - Praya 2023-01-29 11:00:00 WITA Barat Daya 9.3 8.0 Berawan 29 24 1008
61 Sultan Aji Muhammad Sulaiman - Sepinggan 2023-01-29 11:00:00 WITA Barat Laut 9.3 >=10 Cerah - berawan 27 24 1009
62 Aji Pangeran Tumenggung Pranoto - Samarinda 2023-01-29 11:00:00 WITA Variabel 1.9 3.5 Hujan ringan 23 23 1010
63 Tanjung Harapan - Tanjung Selor 2023-01-29 11:00:00 WITA Tenang 6.0 Berawan 26 24 1010
64 Sultan Muhammad Kaharuddin - Sumbawa Besar 2023-01-29 11:00:00 WITA Barat Laut 5.6 >=10 Berawan 29 24 1006
65 Kalimarau - Tanjung Redeb 2023-01-29 11:00:00 WITA Variabel 1.9 8.0 Berawan 29 26 1010
66 Juwata - Tarakan 2023-01-29 11:00:00 WITA Barat 5.6 >=10 Berawan 26 25 1010
67 Sultan Muhammad Salahuddin - Bima 2023-01-29 11:00:00 WITA Barat Laut 5.6 >=10 Berawan 30 26 1007
68 Tampa Padang - Mamuju 2023-01-29 11:00:00 WITA Variabel 3.7 8.0 Hujan ringan 25 22 1010
69 Tambolaka - Sumba Barat 2023-01-29 10:00:00 WITA Barat 20.4 >=10 Berawan 29 24 1006
70 Sultan Hasanuddin - Makassar 2023-01-29 11:00:00 WITA Timur Laut 7.4 5.0 Hujan ringan 26 24 1010
71 Pongtiku - Tana Toraja 2023-01-29 11:00:00 WITA Barat Daya 11.1 >=10 Berawan 26 22 1008
72 Komodo - Labuan Bajo 2023-01-29 11:00:00 WITA Utara 5.6 >=10 Cerah - berawan 31 26 1008
73 Mutiara SIS Al-Jufri - Palu 2023-01-29 11:00:00 WITA Barat Laut 13.0 >=10 Berawan 31 23 1009
74 Umbu Mehang Kunda - Waingapu 2023-01-29 11:00:00 WITA Timur Laut 9.3 >=10 Berawan 32 25 1006
75 Andi Jemma - Masamba 2023-01-29 11:00:00 WITA Tenggara 3.7 9.0 Berawan 29 25 1008
76 Frans Sales Lega - Ruteng 2023-01-29 11:00:00 WITA Barat 11.1 >=10 Berawan 23 20 1012
77 Kasiguncu - Poso 2023-01-29 11:00:00 WITA Tenang 9.0 Berawan 30 25 1008
78 Sultan Bantilan - Toli Toli 2023-01-29 11:00:00 WITA Barat 3.7 >=10 Berawan 29 26 1009
79 SOA - Bajawa 2023-01-29 11:00:00 WITA Timur 7.4 >=10 Berawan 29 25 1011
80 Sangia Nibandera - Kolaka 2023-01-29 11:00:00 WITA Barat Laut 9.3 Cerah 31 24 1008
81 Tardamu - Sabu 2023-01-29 11:00:00 WITA Barat Laut 9.3 >=10 Cerah - berawan 31 26 1007
82 Fransiskus Xaverius Seda - Maumere 2023-01-29 11:00:00 WITA Timur Laut 11.1 >=10 Berawan 30 26 1008
83 Haluoleo - Kendari 2023-01-29 11:00:00 WITA Tenang >=10 Berawan 30 24 1009
84 Beto Ambari - Bau Bau 2023-01-29 11:00:00 WITA Tenang >=10 Berawan 28 26 1009
85 Djalaluddin - Gorontalo 2023-01-29 11:00:00 WITA Barat Daya 5.6 >=10 Berawan 31 26 1006
86 Gewayantana - Larantuka 2023-01-29 11:00:00 WITA Timur 7.4 >=10 Berawan 32 23 1007
87 David Constantijn Saudale - Rote 2023-01-29 11:00:00 WITA Barat Laut 9.3 >=10 Berawan 30 26 1008
88 El Tari - Kupang 2023-01-29 11:00:00 WITA Barat Laut 14.8 >=10 Berawan 31 25 1007
89 Mali - Alor 2023-01-29 11:00:00 WITA Barat 7.4 >=10 Cerah - berawan 31 26 1008
90 A.A. Bere Talo / Atambua 2023-01-29 11:00:00 WITA Utara 14.8 >=10 Berawan 30 23 1009
91 Sam Ratulangi - Manado 2023-01-29 11:00:00 WITA Barat Daya 7.4 >=10 Berawan 31 24 1008
92 Naha - Tahuna 2023-01-29 11:00:00 WITA Barat Laut 9.3 5.0 Hujan ringan 25 25 1008
93 Emalamo - Sanana 2023-01-29 12:00:00 WIT Barat 9.3 8.0 Berawan 30 25 1008
94 Namniwel - Namlea 2023-01-29 12:00:00 WIT Barat Laut 9.3 >=10 Cerah - berawan 29 25 1006
95 Sultan Babullah - Ternate 2023-01-29 12:00:00 WIT Utara 7.4 >=10 Berawan 30 26 1008
96 Oesman Sadik - Labuha 2023-01-29 12:00:00 WIT Barat 9.3 9.0 Berawan 30 24 1008
97 Gamar Malamo - Galela 2023-01-29 12:00:00 WIT Barat 9.3 >=10 Berawan 31 26 1007
98 Pattimura - Ambon 2023-01-29 12:00:00 WIT Utara 14.8 >=10 Cerah - berawan 31 24 1007
99 Pitu - Morotai 2023-01-29 10:00:00 WIT Barat 5.6 >=10 Cerah - berawan 28 25 1008
100 Amahai 2023-01-29 12:00:00 WIT Tenang >=10 Berawan 30 24 1007
101 Bandaneira - Banda 2023-01-29 10:00:00 WIT Timur Laut 1.9 8.0 Cerah - berawan 27 25 1008
102 Domine Eduard Osok - Sorong 2023-01-29 12:00:00 WIT Barat Daya 11.1 9.0 Berawan 30 24 1007
103 Mathilda Batlayeri - Saumlaki 2023-01-29 12:00:00 WIT Barat 9.3 >=10 Berawan 32 25 1006
104 Torea - Fak Fak 2023-01-29 12:00:00 WIT Barat 7.4 7.0 Hujan ringan 27 25 1009
105 Karel Sadsuitubun - Tual 2023-01-29 12:00:00 WIT Barat 9.3 >=10 Berawan 30 25 1007
106 Utarom - Kaimana 2023-01-29 12:00:00 WIT Utara 22.2 >=10 Cerah - berawan 30 25 1007
107 Rendani - Manokwari 2023-01-29 12:00:00 WIT Tenggara 9.3 >=10 Berawan 31 25 1007
108 Douw Aturure - Nabire 2023-01-29 12:00:00 WIT Barat Laut 13.0 >=10 Cerah - berawan 31 26 1007
109 Frans Kaisiepo - Biak 2023-01-29 12:00:00 WIT Barat 16.7 >=10 Cerah - berawan 29 24 1007
110 Enarotali 2023-01-29 12:00:00 WIT Barat Daya 11.1 9.0 Berawan 22 16 1006
111 Mozes Kilangin - Timika 2023-01-29 12:00:00 WIT Barat Daya 13.0 >=10 Berawan 32 26 1008
112 Mararena / Orai - Sarmi 2023-01-29 12:00:00 WIT Timur Laut 5.6 >=10 Cerah - berawan 30 25 1007
113 Wamena 2023-01-29 12:00:00 WIT Barat 5.6 >=10 Berawan 25 15 1017
114 Mopah - Merauke 2023-01-29 12:00:00 WIT Utara 3.7 >=10 Berawan 31 26 1006
115 Sentani - Jayapura 2023-01-29 12:00:00 WIT Tenggara 9.3 >=10 Cerah - berawan 34 21 1005

Satellite Images

Wave Height Forecast

Wind Forecast

Forest Fires